ENAL/AES METAR and TAF weather

Enter ICAO airport designator
Station Type Date Time Source
ENAL METAR 2020/12/05 06:20 UTC NOAA

ENAL 050620Z 15007KT 9999 SCT042 04/M03 Q1002


Station Type Date Time Source
ENAL Decoded METAR 2020/12/05 06:20 UTC NOAA

Alesund / Vigra, Norway (ENAL) 62-34N 006-07E 22M
Dec 05, 2020 - 01:20 AM EST / 2020.12.05 0620 UTC
Wind: from the SSE (150 degrees) at 8 MPH (7 KT):0
Visibility: greater than 7 mile(s):0
Sky conditions: partly cloudy
Temperature: 39 F (4 C)
Dew Point: 26 F (-3 C)
Relative Humidity: 60%
Pressure (altimeter): 29.59 in. Hg (1002 hPa)
ob: ENAL 050620Z 15007KT 9999 SCT042 04/M03 Q1002
cycle: 6

Station Type Date Time Source
ENAL TAF UTC NOAA

Error!

Example: see airport list